createdAt,value
2022-10-16T00:02:23.353Z,50.53
2022-10-16T00:05:46.996Z,50.57
2022-10-16T00:08:20.285Z,50.57
2022-10-16T00:14:29.874Z,50.70
2022-10-16T00:17:31.163Z,50.72
2022-10-16T00:20:04.189Z,50.69
2022-10-16T00:22:38.755Z,50.76
2022-10-16T00:25:17.198Z,50.88
2022-10-16T00:27:50.555Z,50.92
2022-10-16T00:30:53.978Z,50.85
2022-10-16T00:33:51.972Z,50.84
2022-10-16T00:36:56.505Z,50.90
2022-10-16T00:42:35.463Z,51.02
2022-10-16T00:45:19.270Z,51.06
2022-10-16T00:51:12.160Z,51.20
2022-10-16T00:57:38.051Z,51.42
2022-10-16T01:00:27.618Z,51.54
2022-10-16T01:06:31.804Z,51.59
2022-10-16T01:09:18.903Z,51.81
2022-10-16T01:12:29.743Z,51.94
2022-10-16T01:18:44.451Z,52.16
2022-10-16T01:21:24.977Z,52.23
2022-10-16T01:24:30.020Z,52.28
2022-10-16T01:27:22.734Z,52.31
2022-10-16T01:30:10.210Z,52.28
2022-10-16T01:32:51.758Z,52.32
2022-10-16T01:35:53.838Z,52.50
2022-10-16T01:39:06.575Z,52.68
2022-10-16T01:41:51.453Z,52.70
2022-10-16T01:47:57.660Z,52.98
2022-10-16T01:50:58.964Z,53.12
2022-10-16T01:54:02.652Z,53.14
2022-10-16T01:56:38.344Z,53.10
2022-10-16T01:59:36.608Z,53.18
2022-10-16T02:02:37.903Z,53.26
2022-10-16T02:13:03.450Z,53.41
2022-10-16T02:23:04.041Z,53.68
2022-10-16T02:25:48.958Z,53.65
2022-10-16T02:28:49.963Z,53.72
2022-10-16T02:31:30.500Z,53.79
2022-10-16T02:34:53.997Z,53.90
2022-10-16T02:38:19.154Z,53.94
2022-10-16T02:40:56.265Z,54.05
2022-10-16T02:47:21.606Z,54.27
2022-10-16T02:49:59.675Z,54.50
2022-10-16T02:52:36.839Z,54.55
2022-10-16T02:55:18.988Z,54.62
2022-10-16T02:58:00.919Z,54.76
2022-10-16T03:01:00.448Z,54.87
2022-10-16T03:03:59.105Z,54.91
2022-10-16T03:10:20.075Z,55.09
2022-10-16T03:13:00.685Z,55.04
2022-10-16T03:15:35.265Z,55.09
2022-10-16T03:18:32.310Z,55.09
2022-10-16T03:21:06.825Z,55.07
2022-10-16T03:24:30.781Z,55.18
2022-10-16T03:27:29.293Z,55.25
2022-10-16T03:34:18.876Z,55.27
2022-10-16T03:36:54.493Z,55.51
2022-10-16T03:42:57.608Z,55.56
2022-10-16T03:45:31.374Z,55.53
2022-10-16T03:48:05.658Z,55.53
2022-10-16T03:54:04.996Z,55.61
2022-10-16T03:57:28.012Z,55.74
2022-10-16T04:00:22.366Z,55.63
2022-10-16T04:03:05.145Z,55.81
2022-10-16T04:06:50.990Z,56.01
2022-10-16T04:09:49.831Z,55.92
2022-10-16T04:12:30.804Z,55.97
2022-10-16T04:15:51.334Z,56.16
2022-10-16T04:22:10.511Z,56.47
2022-10-16T04:24:47.295Z,56.54
2022-10-16T04:30:35.811Z,56.60
2022-10-16T04:33:17.172Z,56.69
2022-10-16T04:35:59.049Z,56.80
2022-10-16T04:38:39.902Z,56.85
2022-10-16T04:41:38.381Z,56.78
2022-10-16T04:54:28.649Z,56.96
2022-10-16T04:57:31.941Z,57.11
2022-10-16T05:00:05.348Z,57.15
2022-10-16T05:02:46.085Z,57.23
2022-10-16T05:05:51.428Z,57.32
2022-10-16T05:08:51.935Z,57.36
2022-10-16T05:15:35.254Z,57.32
2022-10-16T05:18:38.570Z,57.45
2022-10-16T05:21:22.096Z,57.63
2022-10-16T05:24:05.381Z,57.58
2022-10-16T05:27:31.234Z,57.49
2022-10-16T05:30:29.796Z,57.62
2022-10-16T05:33:33.102Z,57.79
2022-10-16T05:36:40.135Z,58.17
2022-10-16T05:39:36.987Z,58.27
2022-10-16T05:42:34.858Z,58.33
2022-10-16T05:45:41.799Z,58.28
2022-10-16T05:48:17.246Z,57.83
2022-10-16T05:54:01.833Z,57.68
2022-10-16T05:57:10.280Z,57.57
2022-10-16T05:59:47.127Z,57.42
2022-10-16T06:02:25.713Z,57.25
2022-10-16T06:05:05.336Z,57.13
2022-10-16T06:11:09.106Z,57.16
2022-10-16T06:14:13.117Z,57.35
2022-10-16T06:17:10.639Z,57.44
2022-10-16T06:20:12.326Z,57.52
2022-10-16T06:22:50.872Z,57.51
2022-10-16T06:25:25.662Z,57.60
2022-10-16T06:28:04.947Z,57.62
2022-10-16T06:31:04.173Z,57.59
2022-10-16T06:33:48.985Z,57.52
2022-10-16T06:36:23.800Z,57.37
2022-10-16T06:42:47.242Z,56.97
2022-10-16T06:45:47.816Z,56.88
2022-10-16T06:49:16.568Z,56.85
2022-10-16T06:51:57.113Z,56.98
2022-10-16T06:55:25.709Z,56.69
2022-10-16T06:58:01.460Z,56.41
2022-10-16T07:00:41.956Z,56.20
2022-10-16T07:03:48.185Z,56.06
2022-10-16T07:06:49.066Z,55.90
2022-10-16T07:09:26.990Z,55.88
2022-10-16T07:12:27.055Z,55.32
2022-10-16T07:15:29.103Z,54.85
2022-10-16T07:18:06.290Z,54.61
2022-10-16T07:23:47.760Z,54.07
2022-10-16T07:26:47.966Z,53.81
2022-10-16T07:29:25.502Z,53.45
2022-10-16T07:32:01.284Z,53.02
2022-10-16T07:37:59.887Z,53.01
2022-10-16T07:40:34.518Z,52.93
2022-10-16T07:43:09.227Z,52.79
2022-10-16T07:46:10.979Z,52.67
2022-10-16T07:49:10.732Z,52.08
2022-10-16T07:51:45.791Z,51.97
2022-10-16T07:54:46.347Z,51.90
2022-10-16T07:57:48.391Z,51.64
2022-10-16T08:00:27.555Z,51.36
2022-10-16T08:03:29.024Z,51.12
2022-10-16T08:06:07.471Z,50.93
2022-10-16T08:09:10.639Z,50.70
2022-10-16T08:12:06.932Z,50.65
2022-10-16T08:15:03.804Z,50.57
2022-10-16T08:17:38.570Z,50.42
2022-10-16T08:20:42.304Z,50.27
2022-10-16T08:23:44.128Z,49.77
2022-10-16T08:26:43.109Z,49.08
2022-10-16T08:29:18.302Z,48.65
2022-10-16T08:31:54.947Z,48.76
2022-10-16T08:34:31.434Z,48.43
2022-10-16T08:37:07.979Z,48.39
2022-10-16T08:39:45.492Z,48.12
2022-10-16T08:42:35.744Z,47.28
2022-10-16T08:45:24.154Z,47.16
2022-10-16T08:48:06.811Z,46.96
2022-10-16T08:51:08.375Z,46.98
2022-10-16T08:57:43.558Z,46.07
2022-10-16T09:00:28.802Z,46.06
2022-10-16T09:03:15.247Z,45.56
2022-10-16T09:07:00.254Z,45.08
2022-10-16T09:10:24.493Z,44.87
2022-10-16T09:13:25.587Z,45.11
2022-10-16T09:16:34.177Z,45.04
2022-10-16T09:23:08.126Z,44.59
2022-10-16T09:25:57.175Z,44.47
2022-10-16T09:28:34.040Z,44.35
2022-10-16T09:31:35.387Z,44.17
2022-10-16T09:34:16.551Z,43.85
2022-10-16T09:36:52.473Z,43.60
2022-10-16T09:39:53.082Z,43.37
2022-10-16T09:42:36.916Z,43.63
2022-10-16T09:45:26.945Z,43.76
2022-10-16T09:48:32.745Z,43.72
2022-10-16T09:51:22.335Z,43.37
2022-10-16T09:54:02.977Z,43.60
2022-10-16T10:00:25.049Z,43.16
2022-10-16T10:06:40.664Z,42.68
2022-10-16T10:09:32.283Z,42.34
2022-10-16T10:12:32.591Z,42.26
2022-10-16T10:15:43.063Z,42.31
2022-10-16T10:18:27.728Z,42.44
2022-10-16T10:21:51.215Z,42.04
2022-10-16T10:24:53.841Z,41.50
2022-10-16T10:31:17.406Z,41.42
2022-10-16T10:37:46.612Z,41.34
2022-10-16T10:40:41.195Z,41.37
2022-10-16T10:44:06.016Z,41.39
2022-10-16T10:47:09.390Z,41.30
2022-10-16T10:49:55.494Z,41.18
2022-10-16T10:52:53.718Z,41.03
2022-10-16T10:56:00.690Z,41.22
2022-10-16T11:06:56.470Z,40.72
2022-10-16T11:09:58.664Z,40.89
2022-10-16T11:12:39.869Z,40.97
2022-10-16T11:19:53.356Z,40.51
2022-10-16T11:22:42.275Z,40.67
2022-10-16T11:25:21.125Z,40.77
2022-10-16T11:28:47.243Z,40.35
2022-10-16T11:31:29.973Z,40.64
2022-10-16T11:34:34.117Z,40.63
2022-10-16T11:37:44.964Z,40.24
2022-10-16T11:40:30.883Z,40.41
2022-10-16T11:43:35.176Z,40.04
2022-10-16T11:46:22.629Z,40.07
2022-10-16T11:49:43.464Z,39.94
2022-10-16T11:52:49.481Z,39.31
2022-10-16T12:02:55.209Z,39.10
2022-10-16T12:12:49.396Z,37.97
2022-10-16T12:15:59.311Z,37.51
2022-10-16T12:18:34.923Z,37.25
2022-10-16T12:21:16.447Z,37.47
2022-10-16T12:27:40.063Z,37.92
2022-10-16T12:31:01.140Z,37.43
2022-10-16T12:34:22.499Z,36.99
2022-10-16T12:41:12.737Z,37.21
2022-10-16T12:44:12.415Z,36.79
2022-10-16T12:50:36.689Z,36.73
2022-10-16T12:53:25.430Z,37.13
2022-10-16T12:56:31.241Z,37.14
2022-10-16T12:59:31.306Z,37.06
2022-10-16T13:02:36.890Z,36.84
2022-10-16T13:05:31.396Z,36.97
2022-10-16T13:08:39.655Z,37.29
2022-10-16T13:11:29.537Z,37.40
2022-10-16T13:21:42.021Z,38.40
2022-10-16T13:25:02.972Z,38.66
2022-10-16T13:28:13.334Z,38.81
2022-10-16T13:31:15.575Z,39.09
2022-10-16T13:40:27.447Z,39.68
2022-10-16T13:43:28.049Z,39.81
2022-10-16T13:49:14.449Z,40.01
2022-10-16T13:52:43.086Z,40.15
2022-10-16T13:55:20.923Z,40.18
2022-10-16T14:04:55.090Z,40.62
2022-10-16T14:07:33.639Z,40.57
2022-10-16T14:17:23.360Z,40.63
2022-10-16T14:20:04.179Z,40.71
2022-10-16T14:23:31.929Z,40.75
2022-10-16T14:26:34.307Z,40.80
2022-10-16T14:29:17.359Z,40.82
2022-10-16T14:32:29.447Z,41.07
2022-10-16T14:35:08.445Z,40.88
2022-10-16T14:37:42.333Z,40.93
2022-10-16T14:44:10.101Z,41.04
2022-10-16T14:46:50.681Z,40.94
2022-10-16T14:49:30.382Z,41.03
2022-10-16T14:52:21.735Z,41.18
2022-10-16T14:55:19.107Z,40.99
2022-10-16T14:58:01.639Z,40.65
2022-10-16T15:00:40.143Z,40.07
2022-10-16T15:03:40.241Z,40.03
2022-10-16T15:06:19.044Z,39.77
2022-10-16T15:08:53.737Z,39.91
2022-10-16T15:11:51.376Z,39.95
2022-10-16T15:14:30.621Z,40.07
2022-10-16T15:17:31.292Z,40.22
2022-10-16T15:20:36.541Z,40.21
2022-10-16T15:23:16.929Z,40.41
2022-10-16T15:29:16.994Z,40.89
2022-10-16T15:31:49.328Z,40.99
2022-10-16T15:35:09.373Z,41.11
2022-10-16T15:38:10.507Z,41.33
2022-10-16T15:41:10.933Z,41.52
2022-10-16T15:43:49.286Z,41.72
2022-10-16T15:46:54.086Z,41.86
2022-10-16T15:49:55.055Z,42.15
2022-10-16T15:52:37.354Z,42.24
2022-10-16T15:55:14.206Z,42.31
2022-10-16T15:57:47.109Z,42.50
2022-10-16T16:00:28.426Z,42.70
2022-10-16T16:03:03.770Z,42.75
2022-10-16T16:05:41.759Z,42.83
2022-10-16T16:08:18.775Z,42.94
2022-10-16T16:11:02.409Z,43.07
2022-10-16T16:13:38.239Z,43.06
2022-10-16T16:16:18.020Z,43.34
2022-10-16T16:18:53.702Z,43.62
2022-10-16T16:22:37.237Z,43.70
2022-10-16T16:25:10.094Z,43.81
2022-10-16T16:28:34.308Z,43.95
2022-10-16T16:31:11.692Z,44.14
2022-10-16T16:33:45.623Z,44.26
2022-10-16T16:39:05.013Z,44.54
2022-10-16T16:41:38.151Z,44.73
2022-10-16T16:44:14.982Z,44.86
2022-10-16T16:47:36.110Z,45.11
2022-10-16T16:50:14.209Z,45.39
2022-10-16T16:52:46.225Z,45.56
2022-10-16T16:55:19.973Z,45.80
2022-10-16T16:57:59.326Z,45.90
2022-10-16T17:00:34.070Z,46.03
2022-10-16T17:03:34.411Z,46.10
2022-10-16T17:06:22.012Z,46.24
2022-10-16T17:09:26.609Z,46.45
2022-10-16T17:12:01.898Z,46.55
2022-10-16T17:14:38.161Z,46.75
2022-10-16T17:17:39.197Z,46.79
2022-10-16T17:20:20.182Z,46.94
2022-10-16T17:22:55.554Z,47.12
2022-10-16T17:25:32.012Z,47.27
2022-10-16T17:28:32.514Z,47.50
2022-10-16T17:31:54.959Z,47.58
2022-10-16T17:35:19.549Z,47.67
2022-10-16T17:37:51.308Z,47.79
2022-10-16T17:40:29.625Z,47.90
2022-10-16T17:43:06.592Z,48.10
2022-10-16T17:48:43.521Z,48.21
2022-10-16T17:51:18.100Z,48.13
2022-10-16T17:56:53.928Z,48.39
2022-10-16T17:59:30.665Z,48.31
2022-10-16T18:02:28.021Z,48.53
2022-10-16T18:05:01.365Z,48.50
2022-10-16T18:07:36.613Z,48.54
2022-10-16T18:10:20.968Z,48.65
2022-10-16T18:13:20.731Z,48.75
2022-10-16T18:16:27.964Z,48.56
2022-10-16T18:19:05.136Z,48.56
2022-10-16T18:21:43.291Z,48.69
2022-10-16T18:24:40.447Z,48.75
2022-10-16T18:27:14.528Z,48.78
2022-10-16T18:34:24.556Z,48.99
2022-10-16T18:41:11.491Z,49.11
2022-10-16T18:43:46.186Z,49.25
2022-10-16T18:46:25.060Z,49.25
2022-10-16T18:49:01.655Z,49.31
2022-10-16T18:52:27.408Z,49.28
2022-10-16T18:55:35.368Z,49.40
2022-10-16T19:01:17.990Z,49.66
2022-10-16T19:03:59.680Z,49.60
2022-10-16T19:10:25.922Z,49.70
2022-10-16T19:13:01.584Z,49.78
2022-10-16T19:16:09.321Z,49.77
2022-10-16T19:19:43.222Z,49.91
2022-10-16T19:22:29.067Z,49.85
2022-10-16T19:25:08.718Z,49.89
2022-10-16T19:27:48.804Z,49.95
2022-10-16T19:30:26.961Z,49.96
2022-10-16T19:33:09.002Z,50.00
2022-10-16T19:42:31.375Z,50.30
2022-10-16T19:45:03.593Z,50.34
2022-10-16T19:48:01.218Z,50.51
2022-10-16T19:51:00.351Z,50.63
2022-10-16T19:53:35.965Z,50.68
2022-10-16T19:56:34.246Z,50.90
2022-10-16T19:59:09.946Z,51.00
2022-10-16T20:01:53.807Z,51.13
2022-10-16T20:04:51.235Z,51.28
2022-10-16T20:07:37.809Z,51.27
2022-10-16T20:16:22.780Z,51.47
2022-10-16T20:22:44.280Z,51.66
2022-10-16T20:25:19.104Z,51.79
2022-10-16T20:28:21.616Z,51.71
2022-10-16T20:31:52.551Z,51.79
2022-10-16T20:35:16.209Z,51.97
2022-10-16T20:37:51.168Z,52.05
2022-10-16T20:40:31.942Z,52.18
2022-10-16T20:50:03.849Z,52.63
2022-10-16T20:52:38.056Z,52.70
2022-10-16T20:55:12.698Z,52.74
2022-10-16T20:57:48.894Z,52.96
2022-10-16T21:00:23.411Z,53.01
2022-10-16T21:02:59.160Z,53.10
2022-10-16T21:05:34.976Z,53.04
2022-10-16T21:08:07.653Z,53.02
2022-10-16T21:10:41.023Z,52.99
2022-10-16T21:13:15.241Z,53.00
2022-10-16T21:15:49.922Z,52.99
2022-10-16T21:18:22.500Z,52.99
2022-10-16T21:20:54.900Z,53.03
2022-10-16T21:23:27.032Z,53.05
2022-10-16T21:26:03.092Z,53.14
2022-10-16T21:28:36.041Z,53.18
2022-10-16T21:31:15.759Z,53.32
2022-10-16T21:33:48.765Z,53.41
2022-10-16T21:36:26.293Z,53.52
2022-10-16T21:39:05.700Z,53.52
2022-10-16T21:41:44.921Z,53.60
2022-10-16T21:44:20.255Z,53.70
2022-10-16T21:46:54.389Z,53.70
2022-10-16T21:49:28.453Z,53.63
2022-10-16T21:52:00.460Z,53.74
2022-10-16T21:54:32.614Z,53.91
2022-10-16T21:57:08.461Z,54.04
2022-10-16T21:59:42.191Z,54.08
2022-10-16T22:02:15.252Z,54.14
2022-10-16T22:04:47.281Z,54.27
2022-10-16T22:07:20.214Z,54.21
2022-10-16T22:09:54.923Z,54.25
2022-10-16T22:12:28.013Z,54.23
2022-10-16T22:15:08.508Z,54.37
2022-10-16T22:17:42.367Z,54.39
2022-10-16T22:20:15.486Z,54.41
2022-10-16T22:22:48.240Z,54.57
2022-10-16T22:25:20.651Z,54.65
2022-10-16T22:27:54.563Z,54.66
2022-10-16T22:30:27.678Z,54.60
2022-10-16T22:33:00.479Z,54.66
2022-10-16T22:35:32.833Z,54.83
2022-10-16T22:38:05.086Z,54.90
2022-10-16T22:40:41.238Z,55.03
2022-10-16T22:43:14.770Z,55.02
2022-10-16T22:45:49.465Z,55.24
2022-10-16T22:48:22.638Z,55.35
2022-10-16T22:50:57.296Z,55.07
2022-10-16T22:53:30.591Z,54.96
2022-10-16T22:56:02.847Z,55.09
2022-10-16T22:58:35.611Z,55.23
2022-10-16T23:01:13.210Z,55.33
2022-10-16T23:03:46.127Z,55.29
2022-10-16T23:06:19.294Z,55.43
2022-10-16T23:08:55.528Z,55.52
2022-10-16T23:11:28.585Z,55.42
2022-10-16T23:14:01.407Z,55.30
2022-10-16T23:16:35.579Z,55.32
2022-10-16T23:21:43.722Z,55.27
2022-10-16T23:24:18.418Z,55.52
2022-10-16T23:26:51.279Z,55.65
2022-10-16T23:29:23.408Z,55.68
2022-10-16T23:31:59.440Z,55.79
2022-10-16T23:34:32.209Z,55.95
2022-10-16T23:37:06.733Z,56.03
2022-10-16T23:39:41.660Z,56.04
2022-10-16T23:42:13.935Z,56.01
2022-10-16T23:44:48.321Z,56.08
2022-10-16T23:47:21.203Z,55.96
2022-10-16T23:49:57.200Z,55.95
2022-10-16T23:52:29.419Z,55.97
2022-10-16T23:55:03.100Z,55.95
2022-10-16T23:57:35.666Z,55.93
